Time;durP1;ratioP1;P1;durP2;ratioP2;P2;SDS_P1;SDS_P2;PMS_P1;PMS_P2;Temp;Humidity;BMP_temperature;BMP_pressure;BME280_temperature;BME280_humidity;BME280_pressure;Samples;Min_cycle;Max_cycle;Signal;HPM_P1;HPM_P2
2022/06/05 00:02:02;;;;;;;10.70;2.30;;;;;;;21.63;53.18;100903.94;1683199;84;28130;-56
2022/06/05 00:05:04;;;;;;;8.45;3.10;;;;;;;21.60;53.21;100906.58;1681697;85;25799;-55
2022/06/05 00:07:47;;;;;;;10.50;3.00;;;;;;;21.60;53.29;100905.71;1702246;84;25717;-56
2022/06/05 00:10:22;;;;;;;11.28;2.30;;;;;;;21.58;53.26;100904.02;1705810;82;25826;-56
2022/06/05 00:13:13;;;;;;;5.62;2.60;;;;;;;21.61;53.04;100897.28;1706228;83;25803;-55
2022/06/05 00:15:39;;;;;;;11.25;2.30;;;;;;;21.63;52.65;100883.41;1706664;83;27485;-56
2022/06/05 00:18:06;;;;;;;8.05;2.37;;;;;;;21.63;52.68;100891.09;1706664;84;26116;-56
2022/06/05 00:20:34;;;;;;;8.30;2.12;;;;;;;21.65;52.71;100887.63;1706793;84;25456;-55
2022/06/05 00:23:00;;;;;;;10.75;2.47;;;;;;;21.65;52.32;100881.31;1706813;84;25824;-56
2022/06/05 00:25:33;;;;;;;3.95;2.17;;;;;;;21.63;51.97;100882.05;1706846;84;25705;-56
2022/06/05 00:28:08;;;;;;;5.15;2.15;;;;;;;21.58;52.16;100882.66;1706274;83;27352;-55
2022/06/05 00:30:58;;;;;;;7.03;2.40;;;;;;;21.53;52.03;100876.91;1703398;84;25508;-55
2022/06/05 00:33:38;;;;;;;6.92;2.37;;;;;;;21.49;51.99;100875.12;1704248;84;25680;-56
2022/06/05 00:36:45;;;;;;;10.50;2.92;;;;;;;21.50;51.97;100886.93;1704343;84;25934;-54
2022/06/05 00:39:33;;;;;;;8.58;2.17;;;;;;;21.51;51.78;100888.62;1704296;84;25789;-55
2022/06/05 00:42:13;;;;;;;16.23;2.62;;;;;;;21.53;51.85;100877.78;1695457;83;27251;-55
2022/06/05 00:44:44;;;;;;;6.40;2.35;;;;;;;21.55;51.65;100867.47;1686051;84;25764;-55
2022/06/05 00:47:15;;;;;;;18.10;2.72;;;;;;;21.55;51.55;100864.73;1714759;82;26215;-55
2022/06/05 00:49:48;;;;;;;9.93;2.40;;;;;;;21.55;51.76;100861.14;1702733;83;25799;-56
2022/06/05 00:52:17;;;;;;;9.40;2.00;;;;;;;21.55;51.81;100855.16;1685879;84;25808;-55
2022/06/05 00:54:44;;;;;;;6.70;2.30;;;;;;;21.54;51.95;100864.41;1685278;85;28083;-56
2022/06/05 00:57:14;;;;;;;8.75;2.08;;;;;;;21.55;52.05;100859.77;1690507;84;25789;-55
2022/06/05 00:59:44;;;;;;;6.22;2.42;;;;;;;21.53;52.11;100853.14;1701257;83;25763;-56
2022/06/05 01:02:13;;;;;;;7.60;2.47;;;;;;;21.52;52.08;100848.72;1699920;83;26721;-55
2022/06/05 01:04:43;;;;;;;8.10;2.20;;;;;;;21.53;52.36;100849.04;1700233;84;26085;-55
2022/06/05 01:07:11;;;;;;;7.20;2.05;;;;;;;21.54;52.12;100847.99;1697069;84;27692;-55
2022/06/05 01:09:41;;;;;;;9.58;2.85;;;;;;;21.55;51.98;100850.19;1695481;84;25747;-55
2022/06/05 01:12:44;;;;;;;6.53;2.10;;;;;;;21.54;52.00;100845.77;1664561;86;25895;-55
2022/06/05 01:15:19;;;;;;;15.83;2.67;;;;;;;21.52;51.79;100845.98;1703347;81;25949;-56
2022/06/05 01:18:08;;;;;;;12.05;2.65;;;;;;;21.49;51.81;100850.48;1708216;83;25738;-55
2022/06/05 01:20:40;;;;;;;5.85;1.85;;;;;;;21.47;51.94;100846.28;1704708;84;27532;-55
2022/06/05 01:23:27;;;;;;;14.38;2.72;;;;;;;21.47;52.17;100833.97;1704838;82;25504;-56
2022/06/05 01:26:06;;;;;;;5.75;2.17;;;;;;;21.45;52.10;100831.45;1705305;84;25742;-55
2022/06/05 01:28:43;;;;;;;6.47;2.45;;;;;;;21.43;51.78;100825.33;1663226;83;25891;-55
2022/06/05 01:31:34;;;;;;;8.40;2.17;;;;;;;21.42;51.75;100830.48;1686233;84;25743;-56
2022/06/05 01:34:28;;;;;;;7.97;2.12;;;;;;;21.41;51.42;100825.55;1684458;84;27511;-55
2022/06/05 01:37:06;;;;;;;4.92;1.95;;;;;;;21.43;51.22;100817.95;1689342;83;25813;-55
2022/06/05 01:39:55;;;;;;;14.05;2.22;;;;;;;21.42;51.59;100826.38;1684327;84;25832;-55
2022/06/05 01:42:42;;;;;;;14.55;2.65;;;;;;;21.38;51.76;100823.75;1684559;84;26918;-55
2022/06/05 01:45:26;;;;;;;12.28;2.72;;;;;;;21.36;51.89;100823.11;1671175;84;25880;-56
2022/06/05 01:47:59;;;;;;;8.65;2.37;;;;;;;21.35;52.00;100822.78;1711834;82;27696;-55
2022/06/05 01:50:46;;;;;;;6.12;2.50;;;;;;;21.32;51.90;100821.31;1707218;83;25835;-55
2022/06/05 01:53:18;;;;;;;7.90;2.77;;;;;;;21.26;52.05;100827.59;1704374;84;25657;-55
2022/06/05 01:56:03;;;;;;;11.30;2.12;;;;;;;21.23;52.37;100823.37;1677687;84;25881;-55
2022/06/05 01:58:33;;;;;;;;;;;;;;;21.19;52.87;100813.05;1706834;84;25830;-56
2022/06/05 02:01:05;;;;;;;4.40;1.85;;;;;;;21.13;53.17;100816.08;1704316;84;27487;-55
2022/06/05 02:03:40;;;;;;;5.78;2.12;;;;;;;21.09;53.31;100809.34;1704049;84;25792;-55
2022/06/05 02:06:12;;;;;;;4.45;2.33;;;;;;;21.06;53.53;100807.88;1693016;84;26379;-55
2022/06/05 02:08:44;;;;;;;6.78;2.15;;;;;;;21.03;53.72;100804.17;1656639;86;26441;-57
2022/06/05 02:11:20;;;;;;;7.83;2.30;;;;;;;20.95;54.10;100808.45;1656845;86;25938;-55
2022/06/05 02:13:54;;;;;;;5.22;2.20;;;;;;;20.88;54.30;100808.41;1656686;85;27482;-56
2022/06/05 02:16:21;;;;;;;8.35;2.22;;;;;;;20.81;54.67;100811.65;1656532;86;25807;-55
2022/06/05 02:18:50;;;;;;;3.60;1.95;;;;;;;20.75;54.97;100809.73;1656592;86;25807;-56
2022/06/05 02:21:19;;;;;;;7.17;2.10;;;;;;;20.69;55.74;100815.96;1656590;86;26159;-55
2022/06/05 02:23:46;;;;;;;3.27;2.22;;;;;;;20.61;55.99;100818.36;1656685;86;26019;-55
2022/06/05 02:26:13;;;;;;;3.77;2.00;;;;;;;20.51;56.06;100820.61;1656864;86;28108;-54
2022/06/05 02:28:40;;;;;;;6.65;2.52;;;;;;;20.38;56.10;100830.39;1675847;84;25771;-54
2022/06/05 02:31:34;;;;;;;9.20;2.50;;;;;;;20.29;56.48;100833.81;1704373;84;25746;-55
2022/06/05 02:34:36;;;;;;;3.42;1.95;;;;;;;20.25;56.29;100837.14;1704464;84;26647;-55
2022/06/05 02:37:40;;;;;;;6.05;2.27;;;;;;;20.25;56.26;100835.24;1704242;84;25764;-56
2022/06/05 02:40:14;;;;;;;;;;;;;;;20.27;56.21;100834.53;1706889;84;27566;-55
2022/06/05 02:43:07;;;;;;;10.70;3.57;;;;;;;20.30;56.27;100836.87;1703170;83;25757;-55
2022/06/05 02:45:45;;;;;;;5.60;2.30;;;;;;;20.30;57.04;100828.68;1695953;84;26505;-55
2022/06/05 02:48:20;;;;;;;9.60;2.67;;;;;;;20.30;56.17;100820.98;1656145;86;25806;-54
2022/06/05 02:50:52;;;;;;;12.98;3.15;;;;;;;20.37;55.45;100813.67;1673927;82;25763;-55
2022/06/05 02:53:21;;;;;;;10.83;3.90;;;;;;;20.44;55.38;100817.83;1719566;83;26785;-55
2022/06/05 02:55:48;;;;;;;13.05;3.05;;;;;;;20.51;54.97;100826.07;1718687;83;25683;-55
2022/06/05 02:58:15;;;;;;;9.40;2.83;;;;;;;20.55;54.92;100832.80;1718865;83;25708;-55
2022/06/05 03:03:27;;;;;;;11.90;2.80;;;;;;;20.56;55.29;100842.19;1719022;83;25855;-57
2022/06/05 03:03:29;;;;;;;7.80;2.85;;;;;;;20.58;55.76;100843.34;1718951;83;25789;-55
2022/06/05 03:06:02;;;;;;;17.95;2.62;;;;;;;20.64;56.30;100852.96;1717376;83;28489;-56
2022/06/05 03:08:29;;;;;;;7.27;2.63;;;;;;;20.69;57.65;100856.97;1685272;84;25691;-55
2022/06/05 03:10:56;;;;;;;5.42;2.67;;;;;;;20.66;57.41;100845.09;1710979;82;25792;-55
2022/06/05 03:13:23;;;;;;;5.92;2.60;;;;;;;20.68;57.41;100837.50;1706697;83;25825;-55
2022/06/05 03:15:51;;;;;;;5.45;2.30;;;;;;;20.68;57.59;100846.56;1706940;84;25769;-55
2022/06/05 03:18:18;;;;;;;6.67;2.10;;;;;;;20.69;57.99;100848.77;1706809;82;28149;-55
2022/06/05 03:20:45;;;;;;;9.33;1.90;;;;;;;20.69;58.14;100852.36;1706672;82;27205;-55
2022/06/05 03:23:12;;;;;;;5.40;2.33;;;;;;;20.70;59.04;100864.13;1707129;84;25478;-55
2022/06/05 03:25:42;;;;;;;8.00;2.27;;;;;;;20.70;59.13;100868.22;1706897;84;25726;-54
2022/06/05 03:28:09;;;;;;;6.70;2.80;;;;;;;20.70;58.79;100860.02;1707774;83;25845;-55
2022/06/05 03:30:39;;;;;;;9.63;2.83;;;;;;;20.68;58.48;100867.57;1704370;84;28355;-52
2022/06/05 03:33:07;;;;;;;11.28;3.12;;;;;;;20.68;57.67;100861.59;1704207;84;25836;-55
2022/06/05 03:35:41;;;;;;;7.35;2.60;;;;;;;20.72;57.24;100867.50;1704238;84;25756;-56
2022/06/05 03:38:11;;;;;;;10.55;2.77;;;;;;;20.78;57.11;100863.98;1704562;84;26727;-55
2022/06/05 03:40:43;;;;;;;4.17;2.83;;;;;;;20.86;57.28;100867.92;1705918;83;25724;-55
2022/06/05 03:43:11;;;;;;;8.33;3.07;;;;;;;20.97;57.20;100871.13;1704797;84;28525;-55
2022/06/05 03:45:39;;;;;;;7.78;3.00;;;;;;;21.03;56.42;100879.38;1704118;84;25874;-55
2022/06/05 03:48:08;;;;;;;9.20;3.08;;;;;;;20.99;56.09;100879.98;1704340;84;25763;-54
2022/06/05 03:50:40;;;;;;;7.42;3.17;;;;;;;20.97;56.25;100881.56;1698085;84;26430;-55
2022/06/05 03:53:07;;;;;;;12.00;3.60;;;;;;;20.99;56.67;100883.55;1656832;84;25829;-55
2022/06/05 03:55:34;;;;;;;12.15;3.85;;;;;;;20.98;57.57;100884.59;1656914;86;27470;-54
2022/06/05 03:58:01;;;;;;;8.90;3.67;;;;;;;21.02;57.73;100885.06;1657945;83;25825;-54
2022/06/05 04:00:28;;;;;;;8.03;3.22;;;;;;;21.11;57.99;100886.58;1659931;84;25451;-54
2022/06/05 04:02:54;;;;;;;10.10;3.37;;;;;;;21.23;58.05;100883.56;1629905;88;25793;-54
2022/06/05 04:05:22;;;;;;;5.28;3.17;;;;;;;21.37;58.07;100887.19;1629620;88;27271;-54
2022/06/05 04:07:49;;;;;;;6.25;3.42;;;;;;;21.48;58.54;100893.95;1629718;86;27439;-54
2022/06/05 04:10:17;;;;;;;17.92;4.87;;;;;;;21.46;59.25;100898.81;1629509;88;25814;-55
2022/06/05 04:12:46;;;;;;;10.55;4.35;;;;;;;21.40;61.17;100896.38;1629584;87;25857;-53
2022/06/05 04:15:14;;;;;;;12.28;4.72;;;;;;;21.37;61.64;100894.03;1629483;87;25887;-55
2022/06/05 04:17:41;;;;;;;7.87;4.72;;;;;;;21.37;63.54;100907.72;1629957;86;25758;-55
2022/06/05 04:20:10;;;;;;;9.48;5.78;;;;;;;21.37;64.41;100905.52;1629687;87;27502;-56
2022/06/05 04:22:40;;;;;;;14.83;4.80;;;;;;;21.35;65.66;100904.33;1629656;88;26072;-55
2022/06/05 04:25:11;;;;;;;12.13;4.72;;;;;;;21.41;65.34;100902.67;1656880;86;25782;-55
2022/06/05 04:27:38;;;;;;;9.65;5.58;;;;;;;21.42;65.68;100910.70;1656736;86;26461;-53
2022/06/05 04:30:06;;;;;;;13.25;5.22;;;;;;;21.49;65.10;100913.97;1680296;84;25927;-54
2022/06/05 04:32:34;;;;;;;9.75;4.17;;;;;;;21.53;64.62;100903.78;1722023;83;27442;-55
2022/06/05 04:35:02;;;;;;;12.85;4.42;;;;;;;21.54;64.21;100893.16;1691042;84;25510;-55
2022/06/05 04:37:28;;;;;;;15.32;4.40;;;;;;;21.59;64.16;100910.36;1724499;82;25725;-55
2022/06/05 04:39:55;;;;;;;10.48;3.95;;;;;;;21.59;63.90;100915.83;1691317;84;25890;-56
2022/06/05 04:42:22;;;;;;;11.65;4.20;;;;;;;21.67;63.67;100914.28;1727510;82;25673;-56
2022/06/05 04:44:49;;;;;;;10.82;4.78;;;;;;;21.65;63.57;100931.97;1691266;84;27472;-56
2022/06/05 04:47:16;;;;;;;8.78;3.80;;;;;;;21.60;63.23;100918.03;1747016;82;25727;-56
2022/06/05 04:49:43;;;;;;;9.45;3.77;;;;;;;21.60;63.37;100923.51;1729941;82;25725;-54
2022/06/05 04:52:12;;;;;;;9.00;3.60;;;;;;;21.58;63.40;100927.29;1714331;83;25835;-53
2022/06/05 04:54:39;;;;;;;9.38;3.92;;;;;;;21.52;63.76;100928.09;1721128;83;25482;-55
2022/06/05 04:57:06;;;;;;;5.60;3.60;;;;;;;21.49;63.92;100932.59;1721043;83;27464;-55
2022/06/05 04:59:33;;;;;;;8.18;3.77;;;;;;;21.51;64.15;100938.72;1721139;83;25750;-55
2022/06/05 05:02:00;;;;;;;6.50;4.28;;;;;;;21.52;64.57;100944.52;1721357;83;25726;-54
2022/06/05 05:04:27;;;;;;;8.28;4.08;;;;;;;21.52;64.36;100930.83;1720978;83;25792;-56
2022/06/05 05:06:53;;;;;;;11.25;3.87;;;;;;;21.67;64.40;100935.31;1720952;83;25790;-56
2022/06/05 05:09:20;;;;;;;5.55;3.75;;;;;;;21.71;64.30;100931.95;1721092;83;28466;-56
2022/06/05 05:11:47;;;;;;;7.92;3.70;;;;;;;21.75;64.33;100928.28;1720882;83;25789;-56
2022/06/05 05:14:14;;;;;;;12.47;3.95;;;;;;;21.82;64.08;100931.91;1720960;83;25703;-56
2022/06/05 05:16:41;;;;;;;7.92;4.25;;;;;;;21.99;63.89;100930.14;1721343;83;25848;-55
2022/06/05 05:19:09;;;;;;;8.25;3.85;;;;;;;22.03;63.70;100938.24;1721185;83;25706;-55
2022/06/05 05:21:37;;;;;;;6.00;3.90;;;;;;;22.12;63.40;100935.63;1721398;83;28111;-56
2022/06/05 05:24:07;;;;;;;8.15;3.95;;;;;;;22.11;63.38;100944.89;1721311;83;25958;-55
2022/06/05 05:26:35;;;;;;;9.93;4.28;;;;;;;22.08;63.12;100937.11;1721096;83;25631;-56
2022/06/05 05:29:04;;;;;;;10.32;3.75;;;;;;;21.88;63.22;100938.42;1698064;83;25792;-57
2022/06/05 05:31:36;;;;;;;7.80;4.05;;;;;;;21.86;63.27;100940.55;1699848;83;25769;-56
2022/06/05 05:34:04;;;;;;;9.50;4.53;;;;;;;21.89;63.69;100949.19;1700301;83;27456;-57
2022/06/05 05:36:31;;;;;;;8.38;5.67;;;;;;;21.92;63.88;100942.98;1695473;83;25757;-56
2022/06/05 05:42:04;;;;;;;11.85;4.17;;;;;;;22.12;63.62;100950.69;1695626;83;25872;-56
2022/06/05 05:44:42;;;;;;;6.53;4.33;;;;;;;22.09;63.97;100958.48;1702913;83;25742;-56
2022/06/05 05:47:15;;;;;;;9.48;4.20;;;;;;;21.92;63.98;100952.03;1693965;83;27574;-55
2022/06/05 05:49:42;;;;;;;6.85;4.60;;;;;;;21.89;64.65;100947.81;1689946;84;25820;-56
2022/06/05 05:52:11;;;;;;;7.33;3.98;;;;;;;21.93;64.36;100954.23;1684751;84;25753;-55
2022/06/05 05:54:40;;;;;;;6.97;3.77;;;;;;;22.03;64.44;100958.28;1684897;85;26456;-55
2022/06/05 05:57:08;;;;;;;7.22;4.30;;;;;;;22.09;64.65;100960.72;1684317;84;26625;-56
2022/06/05 05:59:36;;;;;;;7.55;3.30;;;;;;;22.14;64.42;100957.35;1684024;85;28191;-55
2022/06/05 06:02:10;;;;;;;4.70;3.45;;;;;;;22.17;64.45;100953.66;1689427;83;25768;-56
2022/06/05 06:04:35;;;;;;;11.28;3.58;;;;;;;22.28;64.38;100957.67;1661382;85;25462;-55
2022/06/05 06:07:03;;;;;;;4.78;2.70;;;;;;;22.36;64.09;100948.41;1659362;84;25817;-55
2022/06/05 06:09:30;;;;;;;4.70;2.50;;;;;;;22.46;63.75;100954.32;1691967;84;25456;-55
2022/06/05 06:11:57;;;;;;;4.33;2.02;;;;;;;22.53;63.33;100948.84;1701046;83;27659;-56
2022/06/05 06:14:24;;;;;;;5.87;1.50;;;;;;;22.61;62.76;100943.69;1693927;84;25489;-56
2022/06/05 06:16:52;;;;;;;3.42;1.25;;;;;;;22.69;62.14;100948.95;1680946;83;25765;-56
2022/06/05 06:19:19;;;;;;;5.58;1.80;;;;;;;22.75;61.79;100939.03;1682236;85;25800;-56
2022/06/05 06:21:46;;;;;;;1.50;1.40;;;;;;;22.80;61.69;100946.94;1681892;83;25717;-54
2022/06/05 06:24:14;;;;;;;5.80;1.40;;;;;;;22.80;61.43;100941.97;1681390;83;27432;-56
2022/06/05 06:26:41;;;;;;;5.47;1.50;;;;;;;22.81;61.41;100947.26;1701028;83;25793;-55
2022/06/05 06:29:10;;;;;;;3.50;1.70;;;;;;;22.75;61.15;100944.52;1704434;83;25455;-55
2022/06/05 06:31:39;;;;;;;1.65;1.12;;;;;;;22.61;61.67;100954.11;1714011;83;26459;-55
2022/06/05 06:34:06;;;;;;;7.17;1.35;;;;;;;22.76;62.04;100942.09;1691957;84;25742;-55
2022/06/05 06:36:34;;;;;;;1.57;1.17;;;;;;;23.03;61.61;100943.41;1691799;84;26924;-55
2022/06/05 06:39:01;;;;;;;1.32;1.20;;;;;;;23.23;61.26;100954.35;1693679;84;26456;-55
2022/06/05 06:41:29;;;;;;;2.77;1.37;;;;;;;23.23;60.25;100952.98;1666677;84;25668;-55
2022/06/05 06:43:56;;;;;;;4.58;1.50;;;;;;;23.37;59.85;100948.29;1660901;85;26572;-53
2022/06/05 06:46:22;;;;;;;2.33;1.10;;;;;;;23.40;59.46;100961.05;1672238;84;25425;-56
2022/06/05 06:48:49;;;;;;;1.82;1.40;;;;;;;23.34;59.39;100963.81;1691945;84;27467;-55
2022/06/05 06:51:18;;;;;;;5.37;1.40;;;;;;;23.40;59.64;100964.30;1691969;84;25760;-55
2022/06/05 06:53:45;;;;;;;1.02;0.95;;;;;;;23.28;59.06;100966.38;1692062;84;25853;-56
2022/06/05 06:56:23;;;;;;;9.18;1.20;;;;;;;23.20;59.39;100966.61;1691944;84;26622;-54
2022/06/05 06:58:51;;;;;;;2.55;1.20;;;;;;;23.14;59.59;100968.79;1688836;84;25826;-56
2022/06/05 07:01:17;;;;;;;2.22;1.20;;;;;;;23.08;59.72;100963.66;1701577;83;27481;-56
2022/06/05 07:03:44;;;;;;;5.78;1.50;;;;;;;23.02;60.05;100961.75;1698566;84;25744;-56
2022/06/05 07:06:13;;;;;;;1.30;1.20;;;;;;;22.95;60.01;100966.42;1698862;84;25509;-57
2022/06/05 07:08:42;;;;;;;1.05;0.95;;;;;;;23.11;59.97;100969.24;1699857;82;25759;-57
2022/06/05 07:11:12;;;;;;;2.33;1.10;;;;;;;23.21;59.72;100979.28;1698916;84;25783;-56
2022/06/05 07:13:39;;;;;;;1.92;1.12;;;;;;;23.38;59.60;100973.31;1700142;84;28494;-56
2022/06/05 07:16:09;;;;;;;4.25;1.30;;;;;;;23.56;58.74;100975.34;1659967;84;26581;-56
2022/06/05 07:18:37;;;;;;;3.22;1.07;;;;;;;23.76;58.49;100972.48;1712846;81;25721;-57
2022/06/05 07:21:12;;;;;;;2.77;1.67;;;;;;;23.90;57.56;100976.01;1714088;83;25979;-56
2022/06/05 07:23:39;;;;;;;3.95;1.00;;;;;;;23.79;57.08;100988.54;1689882;84;25965;-56
2022/06/05 07:26:09;;;;;;;1.98;1.12;;;;;;;23.74;57.24;100986.45;1692346;83;27472;-56
2022/06/05 07:28:36;;;;;;;3.27;1.02;;;;;;;23.70;57.28;100996.20;1691731;84;26108;-56
2022/06/05 07:31:05;;;;;;;0.95;0.90;;;;;;;23.49;57.52;100989.63;1691839;84;25755;-56
2022/06/05 07:33:33;;;;;;;3.40;0.98;;;;;;;23.41;57.71;100981.95;1693545;84;26576;-56
2022/06/05 07:36:04;;;;;;;1.52;0.93;;;;;;;23.28;57.79;100982.84;1688016;84;25547;-56
2022/06/05 07:38:33;;;;;;;4.12;1.05;;;;;;;23.11;58.13;100986.53;1692229;84;28150;-55
2022/06/05 07:41:01;;;;;;;4.42;1.10;;;;;;;22.87;58.80;100997.65;1696035;82;25802;-56
2022/06/05 07:43:28;;;;;;;5.25;1.07;;;;;;;22.66;59.38;100991.36;1691753;84;25567;-56
2022/06/05 07:45:57;;;;;;;6.67;2.70;;;;;;;22.61;59.62;100995.23;1699025;84;25785;-57
2022/06/05 07:48:24;;;;;;;6.78;1.62;;;;;;;22.62;59.57;100996.09;1692092;84;25672;-57
2022/06/05 07:56:35;;;;;;;7.20;1.40;;;;;;;22.82;59.44;101001.56;1694360;84;25543;-56
2022/06/05 07:59:02;;;;;;;1.50;1.02;;;;;;;22.86;59.28;101003.36;1691887;84;25846;-55
2022/06/05 08:01:29;;;;;;;1.77;1.27;;;;;;;22.85;59.17;101008.02;1694511;84;25689;-56
2022/06/05 08:03:56;;;;;;;3.77;1.00;;;;;;;22.97;59.20;101009.58;1679973;84;27486;-55
2022/06/05 08:06:23;;;;;;;4.47;0.90;;;;;;;22.97;58.83;101014.52;1660562;86;26479;-55
2022/06/05 08:08:50;;;;;;;3.65;1.32;;;;;;;22.94;58.72;101012.73;1660563;86;25702;-55
2022/06/05 08:11:17;;;;;;;2.50;1.05;;;;;;;23.01;58.75;101008.08;1660555;86;26627;-55
2022/06/05 08:13:44;;;;;;;2.05;1.25;;;;;;;23.10;58.36;101015.03;1661383;86;25773;-55
2022/06/05 08:16:13;;;;;;;7.60;1.55;;;;;;;23.06;58.23;101000.06;1660659;85;28534;-55
2022/06/05 08:18:40;;;;;;;4.75;1.20;;;;;;;23.25;57.97;100998.90;1660481;85;25751;-53
2022/06/05 08:21:07;;;;;;;5.35;1.60;;;;;;;23.57;56.99;100997.62;1660504;86;25669;-57
2022/06/05 08:23:34;;;;;;;10.13;1.40;;;;;;;23.95;56.69;100990.48;1660736;86;26598;-55
2022/06/05 08:26:02;;;;;;;8.95;2.30;;;;;;;24.46;55.53;100994.17;1660642;86;25819;-55
2022/06/05 08:28:28;;;;;;;10.10;2.15;;;;;;;24.79;54.10;100999.43;1666333;84;27449;-55
2022/06/05 08:30:55;;;;;;;10.78;1.72;;;;;;;25.09;52.83;101015.77;1722482;82;25796;-55
2022/06/05 08:33:22;;;;;;;14.43;1.65;;;;;;;25.41;52.14;101006.04;1657483;85;25944;-56
2022/06/05 08:35:50;;;;;;;6.20;1.35;;;;;;;25.64;52.13;101006.69;1694302;84;26573;-55
2022/06/05 08:41:32;;;;;;;9.90;1.35;;;;;;;25.86;50.13;101004.31;1717016;83;27406;-58
2022/06/05 08:44:16;;;;;;;4.15;1.30;;;;;;;25.97;49.84;101013.69;1691700;84;25721;-56
2022/06/05 08:47:03;;;;;;;3.92;1.20;;;;;;;25.51;49.48;101022.02;1722899;82;25824;-56
2022/06/05 08:49:47;;;;;;;12.63;1.60;;;;;;;25.43;49.57;101006.63;1657742;86;25920;-57
2022/06/05 08:52:46;;;;;;;6.75;1.27;;;;;;;25.55;50.44;101005.34;1728555;82;25932;-57
2022/06/05 08:55:39;;;;;;;4.35;1.60;;;;;;;25.67;49.77;101024.70;1666859;85;27499;-56
2022/06/05 08:58:33;;;;;;;3.83;1.12;;;;;;;25.81;50.03;101013.80;1707302;82;25773;-56
2022/06/05 09:01:14;;;;;;;17.90;2.12;;;;;;;25.70;49.10;101011.30;1696326;83;25863;-57
2022/06/05 09:03:58;;;;;;;3.65;1.40;;;;;;;25.84;49.19;101002.84;1707632;83;25819;-57
2022/06/05 09:06:42;;;;;;;1.67;0.90;;;;;;;26.01;48.58;101016.27;1691812;84;25828;-57
2022/06/05 09:09:26;;;;;;;5.17;1.25;;;;;;;26.20;47.53;101017.63;1691911;84;28278;-56
2022/06/05 09:12:10;;;;;;;14.25;1.22;;;;;;;26.23;46.81;101017.17;1690002;84;25818;-56
2022/06/05 09:14:48;;;;;;;1.70;0.98;;;;;;;26.37;46.06;101012.30;1692015;84;25668;-56
2022/06/05 09:17:19;;;;;;;4.50;1.10;;;;;;;26.21;45.54;101011.91;1691877;84;26554;-56
2022/06/05 09:19:49;;;;;;;18.62;1.60;;;;;;;26.32;45.77;101008.87;1691963;84;25783;-56
2022/06/05 09:22:37;;;;;;;14.60;1.25;;;;;;;26.64;45.49;101000.28;1691769;84;27504;-56
2022/06/05 09:25:24;;;;;;;10.48;1.47;;;;;;;26.87;45.49;100993.96;1692011;84;25769;-57
2022/06/05 09:27:59;;;;;;;2.50;1.25;;;;;;;27.16;44.64;100998.22;1691279;84;25829;-57
2022/06/05 09:30:38;;;;;;;3.25;1.57;;;;;;;27.42;44.24;101000.16;1685160;85;26143;-57
2022/06/05 09:33:19;;;;;;;6.47;1.30;;;;;;;27.46;43.53;100992.24;1684598;84;25689;-57
2022/06/05 09:35:54;;;;;;;8.93;1.00;;;;;;;27.63;43.35;100997.30;1685087;85;27589;-56
2022/06/05 09:38:41;;;;;;;2.27;1.70;;;;;;;27.65;43.02;100997.08;1684210;85;26124;-56
2022/06/05 09:41:16;;;;;;;8.70;2.02;;;;;;;27.87;42.26;100994.99;1686328;84;25556;-56
2022/06/05 09:44:32;;;;;;;3.58;1.55;;;;;;;28.04;41.43;100997.81;1687632;84;26524;-56
2022/06/05 09:47:03;;;;;;;6.65;1.57;;;;;;;28.29;40.68;100991.09;1683779;85;26185;-56
2022/06/05 09:49:46;;;;;;;7.42;1.62;;;;;;;27.92;42.22;101008.38;1686766;84;27476;-56
2022/06/05 09:52:18;;;;;;;3.12;1.57;;;;;;;27.60;43.20;101008.86;1664622;84;25743;-56
2022/06/05 09:55:07;;;;;;;8.60;1.80;;;;;;;27.16;44.32;101007.05;1656859;85;25471;-56
2022/06/05 10:00:45;;;;;;;10.10;2.40;;;;;;;27.42;44.67;101014.52;1661505;86;25723;-56
2022/06/05 10:03:17;;;;;;;5.12;2.20;;;;;;;27.21;44.29;101012.67;1665554;84;27510;-56
2022/06/05 10:06:05;;;;;;;8.18;2.20;;;;;;;27.20;44.90;101007.41;1691565;83;25809;-56
2022/06/05 10:08:43;;;;;;;6.40;2.22;;;;;;;27.64;44.40;101016.94;1686476;83;25885;-55
2022/06/05 10:11:42;;;;;;;7.17;1.92;;;;;;;27.80;43.37;101013.95;1683955;84;25936;-56
2022/06/05 10:14:51;;;;;;;7.92;2.20;;;;;;;27.90;42.72;101013.30;1684401;85;26307;-58
2022/06/05 10:17:57;;;;;;;13.75;1.90;;;;;;;27.93;43.03;101007.29;1684737;85;27562;-55
2022/06/05 10:20:38;;;;;;;7.08;2.05;;;;;;;27.70;43.44;101001.86;1689107;83;25551;-56
2022/06/05 10:23:28;;;;;;;10.32;2.00;;;;;;;27.61;43.93;101012.45;1685028;84;25768;-56
2022/06/05 10:26:20;;;;;;;8.08;2.42;;;;;;;28.45;41.67;101020.70;1684759;83;25815;-55
2022/06/05 10:28:50;;;;;;;9.45;2.92;;;;;;;28.74;41.24;101017.33;1674644;83;25819;-57
2022/06/05 10:31:25;;;;;;;8.85;1.72;;;;;;;29.02;40.51;101018.88;1700099;84;27478;-56
2022/06/05 10:34:16;;;;;;;5.47;1.92;;;;;;;28.86;39.93;101019.17;1700051;83;26369;-56
2022/06/05 10:37:06;;;;;;;7.47;2.62;;;;;;;28.35;40.18;101037.97;1699283;84;25688;-56
2022/06/05 10:40:11;;;;;;;6.25;2.37;;;;;;;27.82;41.34;101038.58;1698986;83;25918;-56
2022/06/05 10:43:01;;;;;;;4.95;2.15;;;;;;;27.62;41.96;101040.39;1700179;84;26000;-57
2022/06/05 10:45:51;;;;;;;3.35;2.47;;;;;;;27.83;42.22;101049.11;1700166;84;28152;-57
2022/06/05 10:48:46;;;;;;;2.65;2.30;;;;;;;27.72;41.96;101041.98;1697965;83;25804;-57
2022/06/05 10:51:33;;;;;;;6.03;2.58;;;;;;;28.11;41.87;101044.16;1643443;87;25739;-57
2022/06/05 10:54:39;;;;;;;6.70;2.40;;;;;;;27.95;41.74;101036.06;1663277;86;27901;-56
2022/06/05 10:57:27;;;;;;;3.08;2.42;;;;;;;27.44;42.42;101046.89;1648245;86;25752;-56
2022/06/05 11:00:18;;;;;;;2.20;1.85;;;;;;;26.87;43.85;101045.58;1663838;86;27474;-56
2022/06/05 11:03:09;;;;;;;4.15;2.27;;;;;;;26.65;44.29;101048.04;1643427;87;26604;-55
2022/06/05 11:06:14;;;;;;;6.42;3.83;;;;;;;26.45;44.48;101051.13;1664101;86;25744;-56
2022/06/05 11:09:11;;;;;;;5.45;4.78;;;;;;;26.37;45.13;101043.45;1631758;87;25827;-56
2022/06/05 11:15:22;;;;;;;5.95;5.35;;;;;;;25.93;46.25;101056.56;1671783;85;27495;-55
2022/06/05 11:18:10;;;;;;;6.92;4.90;;;;;;;25.98;46.56;101042.94;1671696;85;26153;-55
2022/06/05 11:20:43;;;;;;;10.60;4.78;;;;;;;27.17;44.31;101048.22;1695948;84;25759;-54
2022/06/05 11:23:15;;;;;;;7.87;4.70;;;;;;;27.43;43.83;101047.45;1684598;84;25782;-56
2022/06/05 11:26:04;;;;;;;5.53;4.53;;;;;;;27.37;43.66;101040.63;1694454;84;25795;-55
2022/06/05 11:28:50;;;;;;;7.15;4.12;;;;;;;27.29;43.92;101044.63;1707705;83;46599;-55
2022/06/05 11:31:59;;;;;;;6.20;3.58;;;;;;;27.05;44.08;101051.52;1680167;84;25990;-54
2022/06/05 11:35:05;;;;;;;8.10;3.55;;;;;;;26.95;44.18;101035.56;1686947;84;25833;-54
2022/06/05 11:37:53;;;;;;;5.22;4.47;;;;;;;26.76;44.24;101053.27;1651708;86;25812;-57
2022/06/05 11:40:46;;;;;;;13.25;5.22;;;;;;;26.56;44.83;101055.28;1634091;84;25782;-56
2022/06/05 11:43:36;;;;;;;7.90;5.03;;;;;;;26.46;45.27;101048.11;1689221;84;27532;-56
2022/06/05 11:46:23;;;;;;;12.65;5.17;;;;;;;26.40;45.80;101051.83;1675977;85;25815;-56
2022/06/05 11:49:06;;;;;;;7.33;4.80;;;;;;;26.55;45.65;101058.25;1709482;83;25756;-55
2022/06/05 11:52:05;;;;;;;6.35;4.97;;;;;;;26.82;45.22;101049.05;1651818;86;25900;-56
2022/06/05 11:54:43;;;;;;;4.70;3.58;;;;;;;27.94;43.82;101052.35;1671500;84;25844;-55
2022/06/05 11:57:30;;;;;;;3.45;2.50;;;;;;;28.76;42.53;101059.15;1701174;83;28254;-56
2022/06/05 12:00:20;;;;;;;3.27;2.42;;;;;;;28.83;40.87;101061.20;1689354;84;25723;-56
2022/06/05 12:03:01;;;;;;;2.98;2.60;;;;;;;28.21;41.37;101055.94;1699950;83;25474;-56
2022/06/05 12:05:53;;;;;;;4.85;2.92;;;;;;;27.89;42.45;101060.00;1691554;84;25822;-55
2022/06/05 12:08:37;;;;;;;5.50;3.27;;;;;;;27.84;42.88;101060.47;1680448;83;25730;-56
2022/06/05 12:11:12;;;;;;;6.78;4.45;;;;;;;28.01;42.70;101050.83;1691159;84;27498;-56
2022/06/05 12:13:56;;;;;;;5.83;3.35;;;;;;;27.79;42.90;101055.67;1690622;84;25764;-56
2022/06/05 12:16:34;;;;;;;11.08;2.87;;;;;;;27.55;43.65;101059.86;1703217;83;25730;-56
2022/06/05 12:19:27;;;;;;;6.75;3.22;;;;;;;27.39;43.88;101059.19;1661071;84;27932;-56
2022/06/05 12:22:23;;;;;;;4.33;2.58;;;;;;;27.22;44.21;101057.16;1699047;84;25512;-55